LFBO 221500Z AUTO 01006KT 320V060 CAVOK 16/06 Q1032 NOSIG

ElémentsDécodage
LFBO Station météo située sur l'aérodrome de TOULOUSE Blagnac
221500Z émis le 22 du mois à 15h00 UTC
AUTO Bulletin édité par un automate
01006KT vent du 010°, 06 noeuds
320V060 vent de direction variable entre 320° et 060°
CAVOK Ceiling And Visibility OK
- Visibilité de 10 Km ou plus
- Pas de nuage au-dessous de 1500m ou au-dessous de l'altitude minimale du secteur la plus élevée (si>1500m) et absence de CB
- pas de temps présent significatif
16/06 température 16°C, point de rosée 06°C
 soit une humidité relative de 51%
Q1032 la pression au niveau de la mer (QNH) est de 1032 hPa
NOSIG Pas de changement significatif prévu au cours des deux heures suivant l'heure de l'observation